Time;durP1;ratioP1;P1;durP2;ratioP2;P2;SDS_P1;SDS_P2;PMS_P1;PMS_P2;Temp;Humidity;BMP_temperature;BMP_pressure;BME280_temperature;BME280_humidity;BME280_pressure;Samples;Min_cycle;Max_cycle;Signal;HPM_P1;HPM_P2
2023/05/24 00:01:36;;;;;;;;;;;;;;;;;;;;;
2023/05/24 00:07:02;;;;;;;24.40;21.50;;;;;;;15.02;86.78;98483.16;225126;1283;24552;-76
2023/05/24 00:12:49;;;;;;;24.10;21.60;;;;;;;14.94;86.80;98481.60;224649;1287;22539;-76
2023/05/24 00:17:59;;;;;;;23.60;21.10;;;;;;;14.82;86.60;98483.28;224986;1287;25239;-76
2023/05/24 00:23:15;;;;;;;25.50;22.40;;;;;;;14.73;86.83;98490.66;225077;1287;25391;-76
2023/05/24 00:28:40;;;;;;;24.50;22.00;;;;;;;14.63;86.89;98494.59;225267;1282;22539;-75
2023/05/24 00:33:56;;;;;;;24.10;21.50;;;;;;;14.55;87.15;98493.80;225294;1285;22538;-76
2023/05/24 00:39:06;;;;;;;23.70;21.20;;;;;;;14.54;87.27;98495.33;225147;1283;22624;-76
2023/05/24 00:44:51;;;;;;;22.10;19.90;;;;;;;14.56;87.49;98505.81;225139;1285;22557;-76
2023/05/24 00:50:24;;;;;;;21.40;19.10;;;;;;;14.58;87.53;98509.44;225246;1285;23372;-76
2023/05/24 00:55:48;;;;;;;20.30;17.80;;;;;;;14.60;87.63;98512.16;225261;1285;22622;-77
2023/05/24 01:01:20;;;;;;;20.00;18.00;;;;;;;14.62;87.40;98514.64;225214;1282;22540;-76
2023/05/24 01:07:21;;;;;;;19.50;17.70;;;;;;;14.62;87.49;98515.63;225597;1282;22578;-76
2023/05/24 01:13:26;;;;;;;20.50;18.30;;;;;;;14.64;87.29;98520.15;225696;1282;22536;-77
2023/05/24 01:19:00;;;;;;;20.20;18.20;;;;;;;14.65;87.39;98526.69;225702;1282;22558;-77
2023/05/24 01:24:34;;;;;;;;;;;;;;;14.67;87.39;98524.39;225707;1282;22520;-77
2023/05/24 01:29:59;;;;;;;20.70;18.70;;;;;;;14.68;87.35;98528.79;225659;1278;22544;-77
2023/05/24 01:35:22;;;;;;;21.40;19.30;;;;;;;14.69;87.32;98526.58;225604;1282;22567;-75
2023/05/24 01:40:39;;;;;;;20.80;18.80;;;;;;;14.69;87.50;98532.80;225674;1282;22550;-76
2023/05/24 01:46:10;;;;;;;19.90;17.90;;;;;;;14.71;87.62;98537.56;225548;1269;22555;-76
2023/05/24 01:51:33;;;;;;;21.60;19.30;;;;;;;14.72;87.47;98541.48;225558;1280;22765;-75
2023/05/24 01:56:56;;;;;;;21.20;19.00;;;;;;;14.74;87.35;98542.98;225642;1282;22538;-76
2023/05/24 02:02:22;;;;;;;21.10;18.90;;;;;;;14.74;87.53;98546.70;225627;1282;25309;-76
2023/05/24 02:07:54;;;;;;;21.40;19.10;;;;;;;14.74;87.48;98546.09;225593;1282;22661;-76
2023/05/24 02:13:18;;;;;;;22.30;20.00;;;;;;;14.75;87.47;98543.71;225496;1282;24321;-76
2023/05/24 02:18:40;;;;;;;23.10;20.70;;;;;;;14.74;87.41;98543.96;225493;1282;22543;-76
2023/05/24 02:24:03;;;;;;;22.90;20.50;;;;;;;14.75;87.46;98545.67;225658;1278;22751;-76
2023/05/24 02:29:10;;;;;;;22.30;19.50;;;;;;;14.74;87.47;98547.94;225598;1282;22552;-76
2023/05/24 02:34:14;;;;;;;21.80;19.50;;;;;;;14.74;87.44;98549.38;225546;1278;22596;-76
2023/05/24 02:39:34;;;;;;;23.40;21.00;;;;;;;14.73;87.49;98551.95;225589;1282;22658;-76
2023/05/24 02:45:05;;;;;;;24.70;22.20;;;;;;;14.74;87.67;98549.05;225655;1282;25309;-76
2023/05/24 02:50:35;;;;;;;24.80;22.20;;;;;;;14.74;87.72;98554.16;225629;1278;22548;-77
2023/05/24 02:55:56;;;;;;;24.50;21.90;;;;;;;14.74;87.59;98560.13;225555;1282;22548;-76
2023/05/24 03:01:23;;;;;;;25.70;22.90;;;;;;;14.74;87.80;98557.42;225672;1280;22540;-76
2023/05/24 03:06:46;;;;;;;26.20;23.40;;;;;;;14.73;87.65;98562.06;225627;1282;22563;-76
2023/05/24 03:12:06;;;;;;;23.90;21.40;;;;;;;14.74;87.58;98560.83;225608;1282;22548;-77
2023/05/24 03:17:22;;;;;;;26.40;22.80;;;;;;;14.75;87.71;98569.29;225665;1282;24379;-76
2023/05/24 03:22:45;;;;;;;24.90;22.50;;;;;;;14.74;87.43;98572.94;225630;1282;22554;-76
2023/05/24 03:28:01;;;;;;;23.30;20.90;;;;;;;14.72;87.53;98580.69;225559;1276;22569;-76
2023/05/24 03:33:19;;;;;;;19.80;17.40;;;;;;;14.65;87.48;98589.80;225558;1282;22551;-77
2023/05/24 03:38:34;;;;;;;17.00;15.00;;;;;;;14.48;87.16;98595.72;225589;1282;23044;-76
2023/05/24 03:43:46;;;;;;;15.60;13.40;;;;;;;14.27;87.22;98605.14;225547;1282;22591;-76
2023/05/24 03:49:11;;;;;;;15.90;14.20;;;;;;;14.08;87.34;98603.06;225663;1282;24251;-76
2023/05/24 03:54:30;;;;;;;18.90;15.30;;;;;;;13.91;87.63;98601.10;225578;1280;23103;-77
2023/05/24 04:00:11;;;;;;;14.20;12.60;;;;;;;13.77;88.02;98613.48;225616;1278;23277;-76
2023/05/24 04:05:49;;;;;;;14.00;11.40;;;;;;;13.59;88.07;98619.75;225636;1278;25941;-76
2023/05/24 04:11:37;;;;;;;;;;;;;;;;;;;;;
2023/05/24 04:16:56;;;;;;;6.00;5.40;;;;;;;13.25;87.81;98641.77;225605;1282;22580;-77
2023/05/24 04:22:32;;;;;;;6.00;5.50;;;;;;;13.14;88.05;98642.43;225704;1275;22568;-77
2023/05/24 04:27:38;;;;;;;3.60;3.30;;;;;;;13.05;88.02;98657.37;225636;1280;23286;-75
2023/05/24 04:32:50;;;;;;;2.90;2.70;;;;;;;12.95;87.58;98670.11;225620;1282;22595;-77
2023/05/24 04:38:08;;;;;;;4.00;2.70;;;;;;;12.81;87.24;98680.40;225577;1280;22539;-77
2023/05/24 04:43:21;;;;;;;2.90;2.30;;;;;;;12.67;87.09;98685.83;225650;1260;22552;-77
2023/05/24 04:48:38;;;;;;;3.30;2.20;;;;;;;12.59;87.11;98685.80;225567;1279;22551;-76
2023/05/24 04:53:43;;;;;;;2.20;1.90;;;;;;;12.55;87.07;98689.25;225611;1279;22583;-76
2023/05/24 04:58:56;;;;;;;4.70;2.80;;;;;;;12.54;87.01;98690.67;225687;1282;25442;-76
2023/05/24 05:04:21;;;;;;;5.00;3.80;;;;;;;12.54;87.04;98701.08;225567;1282;22553;-76
2023/05/24 05:09:42;;;;;;;7.80;5.10;;;;;;;12.51;86.94;98705.67;225650;1282;22543;-77
2023/05/24 05:15:00;;;;;;;6.40;5.00;;;;;;;12.49;87.06;98716.42;225586;1278;22554;-76
2023/05/24 05:20:17;;;;;;;4.40;4.00;;;;;;;12.44;86.94;98729.27;225565;1275;23055;-76
2023/05/24 05:25:26;;;;;;;5.00;3.90;;;;;;;12.42;87.02;98734.12;225605;1276;22535;-76
2023/05/24 05:30:34;;;;;;;5.60;4.80;;;;;;;12.42;86.90;98744.31;225642;1259;22539;-76
2023/05/24 05:41:10;;;;;;;9.20;6.20;;;;;;;12.26;86.37;98763.58;225480;1281;22539;-76
2023/05/24 05:46:26;;;;;;;7.70;6.10;;;;;;;12.15;86.44;98768.15;225432;1280;23061;-76
2023/05/24 05:51:45;;;;;;;6.80;4.50;;;;;;;12.06;86.42;98772.75;225424;1282;22552;-76
2023/05/24 05:56:56;;;;;;;5.00;4.50;;;;;;;12.00;86.53;98787.94;225423;1275;22539;-77
2023/05/24 06:02:21;;;;;;;5.30;4.30;;;;;;;11.99;86.55;98784.91;225052;1259;22576;-77
2023/05/24 06:07:27;;;;;;;8.00;5.50;;;;;;;11.98;86.73;98791.15;225203;1267;23114;-77
2023/05/24 06:12:50;;;;;;;10.90;6.20;;;;;;;12.00;86.64;98798.49;225011;1281;138925;-78
2023/05/24 06:17:55;;;;;;;9.70;5.90;;;;;;;11.99;86.50;98803.21;225047;1278;22705;-78
2023/05/24 06:23:02;;;;;;;9.30;6.30;;;;;;;11.96;86.28;98807.67;224840;1259;138145;-78
2023/05/24 06:28:08;;;;;;;9.10;6.70;;;;;;;11.93;86.14;98809.23;224871;1271;138345;-77
2023/05/24 06:33:10;;;;;;;9.10;7.40;;;;;;;11.94;86.09;98822.96;224826;1262;138442;-77
2023/05/24 06:38:26;;;;;;;9.50;8.50;;;;;;;11.94;85.95;98826.88;224794;1268;140863;-78
2023/05/24 06:43:44;;;;;;;6.90;5.90;;;;;;;11.97;85.94;98840.23;224937;1259;138423;-77
2023/05/24 06:48:47;;;;;;;6.30;4.90;;;;;;;12.00;85.73;98840.57;224903;1278;138554;-77
2023/05/24 06:54:10;;;;;;;4.20;3.60;;;;;;;12.07;85.60;98852.09;224744;1268;22543;-77
2023/05/24 06:59:36;;;;;;;7.00;4.20;;;;;;;12.15;85.27;98853.52;224548;1275;137973;-77
2023/05/24 07:04:41;;;;;;;6.80;5.00;;;;;;;12.22;85.19;98866.10;224517;1283;138463;-77
2023/05/24 07:09:49;;;;;;;7.20;6.50;;;;;;;12.24;84.79;98869.62;224604;1276;138568;-76
2023/05/24 07:14:55;;;;;;;7.30;6.60;;;;;;;12.26;84.56;98875.05;224635;1282;139204;-76
2023/05/24 07:19:58;;;;;;;8.70;7.90;;;;;;;12.30;84.52;98879.80;224620;1265;138851;-76
2023/05/24 07:25:21;;;;;;;7.90;7.20;;;;;;;12.34;84.42;98886.16;224256;1267;138448;-77
2023/05/24 07:30:27;;;;;;;8.80;7.90;;;;;;;12.35;84.34;98886.33;224665;1278;22542;-75
2023/05/24 07:35:51;;;;;;;9.70;8.70;;;;;;;12.39;84.20;98897.08;224663;1271;24402;-76
2023/05/24 07:40:58;;;;;;;10.90;10.00;;;;;;;12.39;84.25;98905.77;224559;1281;138352;-76
2023/05/24 07:46:00;;;;;;;10.90;9.20;;;;;;;12.37;84.05;98910.71;224510;1264;139086;-74
2023/05/24 07:51:08;;;;;;;10.70;9.60;;;;;;;12.40;84.17;98913.91;224572;1265;138777;-76
2023/05/24 07:56:14;;;;;;;8.30;7.30;;;;;;;12.45;84.09;98908.09;224875;1259;138614;-75
2023/05/24 08:01:22;;;;;;;10.10;9.10;;;;;;;12.45;83.67;98916.77;225103;1275;138722;-75
2023/05/24 08:06:24;;;;;;;11.00;10.00;;;;;;;12.44;83.64;98921.45;225007;1262;22541;-76
2023/05/24 08:11:30;;;;;;;9.10;8.40;;;;;;;12.47;83.53;98924.40;225003;1281;138610;-76
2023/05/24 08:16:32;;;;;;;7.80;7.10;;;;;;;12.56;83.05;98932.07;224947;1273;138273;-76
2023/05/24 08:21:36;;;;;;;7.10;6.50;;;;;;;12.68;82.88;98931.23;224915;1275;138532;-76
2023/05/24 08:26:42;;;;;;;7.10;6.50;;;;;;;12.79;82.76;98936.52;224874;1275;138768;-77
2023/05/24 08:31:44;;;;;;;6.50;6.00;;;;;;;12.89;82.47;98944.80;225095;1280;138436;-77
2023/05/24 08:36:53;;;;;;;6.50;6.00;;;;;;;13.00;82.52;98943.98;225080;1275;138496;-75
2023/05/24 08:41:57;;;;;;;7.00;5.40;;;;;;;13.11;82.01;98952.88;225053;1270;22547;-76
2023/05/24 08:47:12;;;;;;;5.20;4.70;;;;;;;13.34;82.18;98960.06;224897;1262;138147;-76
2023/05/24 08:52:15;;;;;;;6.60;5.20;;;;;;;13.51;81.44;98962.98;225014;1271;138315;-75
2023/05/24 08:57:19;;;;;;;7.20;5.80;;;;;;;13.56;80.86;98970.27;224985;1262;138469;-76
2023/05/24 09:02:22;;;;;;;6.40;5.80;;;;;;;13.58;80.64;98973.09;224689;1278;138470;-77
2023/05/24 09:07:30;;;;;;;5.80;5.00;;;;;;;13.78;81.04;98975.02;224643;1262;138635;-78
2023/05/24 09:12:37;;;;;;;5.30;4.80;;;;;;;14.06;79.95;98981.07;224862;1268;22559;-78
2023/05/24 09:17:40;;;;;;;8.20;5.40;;;;;;;14.11;79.19;98984.21;224827;1275;138483;-76
2023/05/24 09:22:52;;;;;;;4.20;3.80;;;;;;;14.12;79.15;98990.59;224925;1264;138344;-75
2023/05/24 09:28:29;;;;;;;;;;;;;;;;;;;;;
2023/05/24 09:33:37;;;;;;;4.30;3.40;;;;;;;14.42;78.73;98992.02;224914;1278;138558;-76
2023/05/24 09:38:49;;;;;;;3.70;3.30;;;;;;;14.45;78.53;99003.27;225020;1275;138472;-79
2023/05/24 09:44:02;;;;;;;5.60;4.30;;;;;;;14.51;78.80;99000.77;225178;1283;138514;-79
2023/05/24 09:49:08;;;;;;;7.90;6.30;;;;;;;14.56;78.17;99010.64;225094;1282;138857;-77
2023/05/24 09:54:14;;;;;;;6.30;5.40;;;;;;;14.53;78.24;99014.05;225139;1283;22610;-75
2023/05/24 09:59:23;;;;;;;8.10;5.20;;;;;;;14.34;77.51;99020.35;225034;1281;138610;-78
2023/05/24 10:04:33;;;;;;;8.00;5.60;;;;;;;14.13;77.64;99034.21;225090;1262;140041;-77
2023/05/24 10:09:35;;;;;;;7.40;6.30;;;;;;;14.03;78.10;99035.73;224906;1268;138482;-76
2023/05/24 10:14:38;;;;;;;7.40;6.60;;;;;;;14.05;78.48;99041.29;224894;1261;138042;-78
2023/05/24 10:19:40;;;;;;;6.90;6.30;;;;;;;14.19;78.54;99036.58;225109;1281;138542;-77
2023/05/24 10:24:49;;;;;;;7.70;6.90;;;;;;;14.38;78.51;99038.30;225172;1278;22527;-76
2023/05/24 10:30:13;;;;;;;8.60;7.30;;;;;;;14.69;78.50;99036.63;225278;1275;25287;-76
2023/05/24 10:35:18;;;;;;;8.40;7.00;;;;;;;15.11;77.64;99027.27;225107;1280;138220;-76
2023/05/24 10:40:26;;;;;;;7.50;6.80;;;;;;;15.51;76.93;99025.40;224923;1278;180737;-77
2023/05/24 10:45:34;;;;;;;9.10;6.30;;;;;;;15.72;75.86;99030.63;224951;1271;138454;-74
2023/05/24 10:50:36;;;;;;;6.80;6.00;;;;;;;15.76;75.36;99036.29;224903;1262;138670;-75
2023/05/24 10:55:56;;;;;;;7.10;6.50;;;;;;;15.71;75.23;99038.98;224694;1281;138442;-75
2023/05/24 11:00:58;;;;;;;8.90;6.40;;;;;;;15.66;75.47;99037.59;224713;1281;138904;-74
2023/05/24 11:06:00;;;;;;;7.20;6.40;;;;;;;15.72;75.33;99040.09;224968;1271;22588;-75
2023/05/24 11:11:11;;;;;;;11.80;6.90;;;;;;;15.92;75.30;99033.80;225075;1278;138067;-75
2023/05/24 11:16:35;;;;;;;6.50;5.20;;;;;;;16.14;74.63;99035.73;225096;1275;139241;-74
2023/05/24 11:21:42;;;;;;;7.10;5.90;;;;;;;16.20;74.36;99037.30;225108;1282;138555;-75
2023/05/24 11:26:45;;;;;;;6.90;6.20;;;;;;;16.09;74.12;99041.17;225507;1275;138444;-75
2023/05/24 11:31:56;;;;;;;7.90;5.80;;;;;;;16.08;74.53;99044.14;224849;1284;138447;-76
2023/05/24 11:37:21;;;;;;;5.40;4.90;;;;;;;16.20;74.28;99047.08;224799;1286;138534;-76
2023/05/24 11:42:43;;;;;;;5.50;4.90;;;;;;;16.35;74.54;99045.10;224901;1274;22553;-75
2023/05/24 11:47:49;;;;;;;5.50;5.00;;;;;;;16.45;73.77;99043.60;224798;1281;137931;-76
2023/05/24 11:52:52;;;;;;;4.80;4.30;;;;;;;16.44;73.45;99040.73;224666;1281;138321;-76
2023/05/24 11:58:00;;;;;;;5.10;4.60;;;;;;;16.53;73.43;99038.14;224782;1281;138688;-76
2023/05/24 12:03:06;;;;;;;6.80;4.30;;;;;;;16.66;73.25;99038.44;224668;1278;138455;-75
2023/05/24 12:08:18;;;;;;;4.80;4.30;;;;;;;16.76;73.16;99038.34;224967;1283;138523;-75
2023/05/24 12:13:36;;;;;;;4.70;4.30;;;;;;;16.78;72.54;99038.35;224746;1283;138599;-76
2023/05/24 12:18:41;;;;;;;5.80;4.30;;;;;;;16.91;72.54;99039.63;224875;1275;22549;-75
2023/05/24 12:24:13;;;;;;;5.10;4.60;;;;;;;17.05;72.42;99041.81;225023;1269;22684;-76
2023/05/24 12:29:19;;;;;;;5.40;4.70;;;;;;;16.99;72.10;99045.32;224624;1284;139380;-76
2023/05/24 12:34:23;;;;;;;6.00;5.30;;;;;;;16.77;71.92;99051.88;224727;1281;138516;-74
2023/05/24 12:39:30;;;;;;;10.00;5.70;;;;;;;16.58;71.97;99053.02;224792;1268;138620;-75
2023/05/24 12:44:35;;;;;;;6.90;4.80;;;;;;;16.45;72.26;99050.31;224812;1269;138885;-74
2023/05/24 12:49:37;;;;;;;5.90;4.50;;;;;;;16.34;72.39;99053.08;224888;1266;138518;-75
2023/05/24 12:54:40;;;;;;;6.40;5.50;;;;;;;16.21;72.32;99051.80;224943;1264;23518;-75
2023/05/24 12:59:42;;;;;;;5.20;4.70;;;;;;;16.05;72.21;99048.23;224789;1281;138291;-74
2023/05/24 13:04:45;;;;;;;6.40;4.80;;;;;;;15.94;72.19;99049.70;224880;1284;138673;-74
2023/05/24 13:09:50;;;;;;;6.10;5.40;;;;;;;15.82;72.49;99048.80;224807;1270;138735;-75
2023/05/24 13:14:53;;;;;;;6.10;4.80;;;;;;;15.70;72.85;99049.94;224829;1281;138683;-75
2023/05/24 13:19:56;;;;;;;5.40;4.30;;;;;;;15.62;72.75;99048.42;224776;1265;138644;-75
2023/05/24 13:24:58;;;;;;;10.40;5.20;;;;;;;15.67;73.26;99040.23;224821;1274;22542;-75
2023/05/24 13:30:04;;;;;;;9.30;6.10;;;;;;;15.88;72.80;99037.70;224737;1264;23783;-76
2023/05/24 13:35:10;;;;;;;;;;;;;;;16.01;72.48;99035.91;224682;1284;139496;-75
2023/05/24 13:40:13;;;;;;;6.10;4.40;;;;;;;16.10;72.19;99031.25;224966;1275;124897;-76
2023/05/24 13:45:16;;;;;;;6.20;5.00;;;;;;;16.08;72.33;99036.55;224918;1277;138461;-75
2023/05/24 13:50:22;;;;;;;9.60;5.60;;;;;;;16.06;72.17;99046.21;225124;1275;138558;-75
2023/05/24 13:55:35;;;;;;;8.80;5.80;;;;;;;15.91;72.02;99038.77;225172;1279;138477;-76
2023/05/24 14:00:42;;;;;;;9.50;6.20;;;;;;;15.78;72.26;99041.15;225037;1269;22561;-76
2023/05/24 14:05:47;;;;;;;8.50;6.20;;;;;;;15.66;72.24;99043.09;224997;1283;23628;-75
2023/05/24 14:10:50;;;;;;;6.90;6.00;;;;;;;15.53;72.26;99044.49;225081;1281;25939;-75
2023/05/24 14:15:54;;;;;;;8.00;5.90;;;;;;;15.46;73.01;99049.73;225232;1281;27158;-75
2023/05/24 14:20:56;;;;;;;10.00;6.50;;;;;;;15.50;73.16;99045.23;225340;1281;22583;-74
2023/05/24 14:25:58;;;;;;;8.00;5.80;;;;;;;15.49;72.86;99048.34;225250;1281;25326;-76
2023/05/24 14:31:09;;;;;;;8.30;6.60;;;;;;;15.43;72.61;99048.41;225355;1283;22544;-76
2023/05/24 14:36:11;;;;;;;9.40;6.10;;;;;;;15.40;73.11;99049.63;225340;1281;22540;-76
2023/05/24 14:41:14;;;;;;;7.40;5.80;;;;;;;15.39;72.85;99046.80;225304;1281;25253;-76
2023/05/24 14:46:17;;;;;;;9.60;6.30;;;;;;;15.31;73.19;99045.92;225240;1283;22591;-76
2023/05/24 14:51:19;;;;;;;8.30;5.40;;;;;;;15.26;73.18;99047.40;225475;1283;22552;-76
2023/05/24 14:56:22;;;;;;;8.60;5.40;;;;;;;15.20;73.21;99048.02;225453;1281;22550;-76
2023/05/24 15:01:25;;;;;;;7.30;6.10;;;;;;;15.14;73.36;99053.09;225304;1283;22566;-77
2023/05/24 15:06:33;;;;;;;7.10;5.50;;;;;;;15.07;73.38;99052.30;225378;1283;23010;-75
2023/05/24 15:11:36;;;;;;;8.80;5.80;;;;;;;14.97;73.32;99052.04;225328;1281;22549;-76
2023/05/24 15:16:41;;;;;;;7.00;5.80;;;;;;;14.89;73.87;99053.33;225378;1283;22554;-76
2023/05/24 15:21:43;;;;;;;8.40;5.90;;;;;;;14.83;73.87;99051.02;225382;1283;22551;-77
2023/05/24 15:26:46;;;;;;;8.60;6.00;;;;;;;14.76;74.05;99055.98;225354;1282;22555;-76
2023/05/24 15:31:49;;;;;;;9.20;5.80;;;;;;;14.75;74.30;99054.14;225322;1270;22534;-75
2023/05/24 15:36:54;;;;;;;8.80;6.30;;;;;;;14.76;74.29;99057.30;225289;1261;24231;-76
2023/05/24 15:41:56;;;;;;;7.80;6.20;;;;;;;14.76;74.47;99061.10;225351;1281;22544;-76
2023/05/24 15:46:58;;;;;;;6.80;5.50;;;;;;;14.78;74.55;99065.64;225472;1283;22575;-75
2023/05/24 15:52:01;;;;;;;8.60;5.50;;;;;;;14.78;74.39;99069.08;225417;1283;22646;-75
2023/05/24 15:57:06;;;;;;;5.80;4.50;;;;;;;14.80;74.32;99071.13;225417;1281;22646;-76
2023/05/24 16:02:08;;;;;;;6.30;5.20;;;;;;;14.83;74.08;99076.18;225398;1276;22554;-76
2023/05/24 16:07:11;;;;;;;5.90;4.80;;;;;;;14.85;74.44;99072.94;225352;1281;22554;-76
2023/05/24 16:12:13;;;;;;;6.80;5.20;;;;;;;14.86;74.29;99081.85;225323;1283;24241;-75
2023/05/24 16:17:15;;;;;;;9.20;4.90;;;;;;;14.87;74.33;99081.57;225396;1262;22550;-75
2023/05/24 16:22:17;;;;;;;5.80;4.80;;;;;;;14.85;73.91;99082.96;225320;1279;22579;-76
2023/05/24 16:27:20;;;;;;;8.90;5.50;;;;;;;14.84;74.10;99089.02;225477;1271;23451;-76
2023/05/24 16:32:23;;;;;;;7.60;5.30;;;;;;;14.79;74.08;99087.20;225344;1283;22549;-76
2023/05/24 16:37:25;;;;;;;7.30;4.90;;;;;;;14.75;74.38;99090.52;225310;1281;22552;-76
2023/05/24 16:42:30;;;;;;;7.70;4.80;;;;;;;14.69;74.32;99092.77;225488;1283;22578;-75
2023/05/24 16:47:33;;;;;;;6.20;5.00;;;;;;;14.62;74.53;99096.56;225379;1282;22579;-76
2023/05/24 16:52:35;;;;;;;7.30;5.00;;;;;;;14.55;74.63;99104.45;225383;1282;22654;-76
2023/05/24 16:57:38;;;;;;;7.60;4.50;;;;;;;14.48;74.55;99107.70;225455;1281;23077;-75
2023/05/24 17:02:40;;;;;;;6.10;4.70;;;;;;;14.43;74.84;99109.77;225387;1282;22535;-75
2023/05/24 17:07:44;;;;;;;7.00;4.90;;;;;;;14.39;74.80;99115.20;225369;1283;22547;-75
2023/05/24 17:12:46;;;;;;;5.60;4.30;;;;;;;14.34;74.69;99123.28;225391;1279;22556;-75
2023/05/24 17:17:50;;;;;;;6.00;4.70;;;;;;;14.27;74.98;99128.95;225397;1281;22557;-76
2023/05/24 17:22:54;;;;;;;8.40;4.80;;;;;;;14.21;74.95;99129.77;225422;1283;22544;-76
2023/05/24 17:27:56;;;;;;;6.70;4.80;;;;;;;14.14;74.86;99129.71;225410;1283;22543;-75
2023/05/24 17:32:58;;;;;;;6.80;4.60;;;;;;;14.10;75.22;99128.96;225403;1281;25409;-76
2023/05/24 17:38:00;;;;;;;7.30;4.40;;;;;;;14.08;75.43;99134.05;225459;1277;22598;-76
2023/05/24 17:43:03;;;;;;;6.80;5.10;;;;;;;14.06;75.43;99135.80;225359;1283;22567;-75
2023/05/24 17:48:06;;;;;;;7.80;4.70;;;;;;;14.02;75.55;99140.89;225354;1283;22554;-75
2023/05/24 17:53:09;;;;;;;7.90;4.60;;;;;;;13.99;75.90;99139.20;225402;1279;22561;-75
2023/05/24 17:58:34;;;;;;;6.40;5.10;;;;;;;13.96;75.94;99152.23;225419;1283;22571;-75
2023/05/24 18:03:39;;;;;;;8.40;5.20;;;;;;;13.93;76.09;99162.42;225424;1283;22543;-75
2023/05/24 18:08:42;;;;;;;6.50;4.90;;;;;;;13.90;76.10;99160.77;225391;1281;22562;-75
2023/05/24 18:13:45;;;;;;;9.60;4.90;;;;;;;13.86;76.38;99161.23;225306;1283;22576;-75
2023/05/24 18:18:47;;;;;;;7.90;5.30;;;;;;;13.83;76.37;99168.41;225442;1279;24263;-75
2023/05/24 18:23:50;;;;;;;7.90;5.30;;;;;;;13.79;76.60;99172.45;225446;1283;22571;-76
2023/05/24 18:28:52;;;;;;;14.60;6.30;;;;;;;13.74;76.78;99177.59;225336;1283;22561;-75
2023/05/24 18:33:55;;;;;;;7.50;5.60;;;;;;;13.72;76.85;99186.48;225345;1283;22554;-76
2023/05/24 18:38:57;;;;;;;8.40;6.10;;;;;;;13.68;76.82;99193.15;225457;1279;22554;-76
2023/05/24 18:43:59;;;;;;;8.10;6.30;;;;;;;13.67;76.93;99197.69;225335;1283;22547;-76
2023/05/24 18:49:02;;;;;;;9.90;6.70;;;;;;;13.66;77.21;99199.07;225462;1283;22559;-75
2023/05/24 18:54:06;;;;;;;8.30;7.10;;;;;;;13.65;77.38;99198.46;225403;1283;22557;-75
2023/05/24 18:59:15;;;;;;;10.10;7.80;;;;;;;13.64;77.26;99203.57;225369;1283;22540;-76
2023/05/24 19:04:18;;;;;;;;;;;;;;;13.61;77.60;99202.21;225490;1283;22525;-77
2023/05/24 19:09:20;;;;;;;12.90;8.00;;;;;;;13.57;77.57;99214.30;225376;1276;22703;-76
2023/05/24 19:14:22;;;;;;;9.80;7.50;;;;;;;13.51;77.59;99224.45;225375;1283;22544;-76
2023/05/24 19:19:25;;;;;;;10.10;8.20;;;;;;;13.46;77.95;99228.02;225359;1283;22555;-76
2023/05/24 19:24:27;;;;;;;16.20;14.50;;;;;;;13.44;78.07;99237.23;225375;1280;22946;-77
2023/05/24 19:29:33;;;;;;;12.70;9.30;;;;;;;13.41;78.14;99246.19;225315;1283;22554;-76
2023/05/24 19:34:36;;;;;;;11.80;9.10;;;;;;;13.40;78.07;99252.52;225362;1283;22578;-75
2023/05/24 19:39:38;;;;;;;12.20;8.70;;;;;;;13.37;78.36;99254.29;225406;1279;22543;-76
2023/05/24 19:44:40;;;;;;;13.20;8.70;;;;;;;13.36;78.52;99247.88;225361;1283;22573;-75
2023/05/24 19:49:42;;;;;;;10.80;8.20;;;;;;;13.36;78.52;99249.15;225308;1276;24673;-76
2023/05/24 19:54:47;;;;;;;10.10;8.20;;;;;;;13.31;78.53;99250.30;225315;1283;22543;-75
2023/05/24 19:59:49;;;;;;;11.90;8.80;;;;;;;13.29;78.64;99249.84;225406;1279;22546;-75
2023/05/24 20:04:52;;;;;;;13.00;8.80;;;;;;;13.29;78.72;99249.91;225250;1283;25727;-75
2023/05/24 20:09:54;;;;;;;11.60;8.90;;;;;;;13.27;78.77;99245.86;225378;1275;22543;-75
2023/05/24 20:14:57;;;;;;;13.20;9.00;;;;;;;13.22;78.90;99240.30;225354;1281;22539;-75
2023/05/24 20:19:59;;;;;;;12.30;9.10;;;;;;;13.20;79.07;99242.84;225311;1283;22573;-76
2023/05/24 20:25:02;;;;;;;11.60;9.10;;;;;;;13.19;79.06;99241.05;225332;1282;23309;-76
2023/05/24 20:30:16;;;;;;;11.40;9.00;;;;;;;13.18;79.30;99234.34;225398;1280;22659;-75
2023/05/24 20:35:19;;;;;;;11.50;8.90;;;;;;;13.16;79.29;99235.74;225303;1283;22545;-75
2023/05/24 20:40:25;;;;;;;13.70;9.00;;;;;;;13.15;79.41;99231.79;225420;1283;22508;-75
2023/05/24 20:45:27;;;;;;;14.10;8.70;;;;;;;13.14;79.26;99229.09;225371;1283;22570;-75
2023/05/24 20:50:32;;;;;;;13.30;9.20;;;;;;;13.13;79.43;99225.20;225372;1275;22553;-75
2023/05/24 20:55:34;;;;;;;14.70;9.10;;;;;;;13.11;79.65;99230.89;225378;1281;22567;-75
2023/05/24 21:00:37;;;;;;;9.70;8.70;;;;;;;13.09;79.81;99230.79;225373;1277;22531;-75
2023/05/24 21:05:41;;;;;;;14.00;9.00;;;;;;;13.08;79.83;99228.73;225336;1277;23350;-75
2023/05/24 21:10:49;;;;;;;13.60;9.20;;;;;;;13.07;79.90;99230.41;225427;1283;22653;-75
2023/05/24 21:16:12;;;;;;;12.00;9.00;;;;;;;13.06;79.98;99238.31;225292;1283;22552;-75
2023/05/24 21:21:15;;;;;;;14.30;9.30;;;;;;;13.06;79.92;99246.72;225388;1283;22555;-75
2023/05/24 21:26:18;;;;;;;11.60;8.70;;;;;;;13.04;80.26;99253.64;225377;1282;22551;-75
2023/05/24 21:31:20;;;;;;;12.90;8.60;;;;;;;13.05;80.34;99256.73;225304;1283;22588;-75
2023/05/24 21:36:22;;;;;;;11.00;9.10;;;;;;;13.04;80.38;99259.91;225347;1279;23481;-75
2023/05/24 21:41:30;;;;;;;14.20;9.70;;;;;;;13.02;80.64;99264.14;225328;1283;22555;-75
2023/05/24 21:46:35;;;;;;;12.90;9.70;;;;;;;13.02;80.63;99264.34;225398;1283;22557;-74
2023/05/24 21:51:52;;;;;;;10.70;8.70;;;;;;;13.01;80.77;99268.83;225351;1283;22550;-74
2023/05/24 21:57:05;;;;;;;11.50;9.50;;;;;;;12.99;80.74;99271.09;225285;1283;22556;-75
2023/05/24 22:02:10;;;;;;;12.50;9.00;;;;;;;12.99;80.86;99274.60;225305;1277;22558;-74
2023/05/24 22:08:29;;;;;;;13.70;9.60;;;;;;;12.99;81.05;99278.02;225406;1283;22556;-75
2023/05/24 22:13:31;;;;;;;10.90;9.40;;;;;;;12.99;81.12;99281.41;225342;1283;22574;-75
2023/05/24 22:18:48;;;;;;;13.40;9.80;;;;;;;12.95;81.06;99281.29;225347;1281;22547;-75
2023/05/24 22:24:37;;;;;;;11.90;9.10;;;;;;;12.90;81.11;99281.73;225329;1283;22542;-75
2023/05/24 22:29:42;;;;;;;11.70;9.40;;;;;;;12.88;81.06;99289.19;225330;1280;22563;-75
2023/05/24 22:34:48;;;;;;;11.70;8.60;;;;;;;12.83;81.07;99295.13;225379;1279;22556;-75
2023/05/24 22:39:50;;;;;;;11.30;9.10;;;;;;;12.79;81.34;99292.55;225133;1277;246110;-75
2023/05/24 22:44:55;;;;;;;11.90;9.10;;;;;;;12.77;81.51;99293.80;225342;1277;22534;-75
2023/05/24 22:50:00;;;;;;;10.40;9.00;;;;;;;12.78;81.62;99292.87;225399;1279;22563;-75
2023/05/24 22:55:06;;;;;;;12.40;9.20;;;;;;;12.78;81.67;99299.16;225339;1281;22549;-75
2023/05/24 23:00:10;;;;;;;13.30;9.40;;;;;;;12.77;81.74;99302.91;225394;1279;22536;-75
2023/05/24 23:05:13;;;;;;;12.50;8.20;;;;;;;12.76;81.71;99302.91;225400;1279;25342;-76
2023/05/24 23:10:21;;;;;;;14.00;8.70;;;;;;;12.73;82.02;99304.39;225388;1273;24236;-74
2023/05/24 23:15:27;;;;;;;10.70;8.30;;;;;;;12.69;82.11;99309.24;225419;1283;22530;-74
2023/05/24 23:20:40;;;;;;;10.30;7.80;;;;;;;12.70;82.31;99309.73;225335;1283;25316;-75
2023/05/24 23:25:46;;;;;;;13.00;9.40;;;;;;;12.70;82.34;99306.31;225292;1283;22567;-74
2023/05/24 23:30:48;;;;;;;14.00;9.50;;;;;;;12.69;82.36;99308.59;225299;1283;22563;-75
2023/05/24 23:35:52;;;;;;;15.00;9.60;;;;;;;12.70;82.59;99303.73;225382;1283;22611;-74
2023/05/24 23:40:57;;;;;;;12.40;9.10;;;;;;;12.70;82.56;99308.48;225352;1283;22562;-75
2023/05/24 23:46:02;;;;;;;13.20;8.70;;;;;;;12.70;82.56;99307.62;225325;1281;22553;-74
2023/05/24 23:51:08;;;;;;;13.30;9.50;;;;;;;12.67;82.58;99309.87;225392;1283;22546;-75
2023/05/24 23:56:11;;;;;;;12.90;10.70;;;;;;;12.66;82.37;99315.64;225391;1278;25352;-74
